Time;durP1;ratioP1;P1;durP2;ratioP2;P2;SDS_P1;SDS_P2;PMS_P1;PMS_P2;Temp;Humidity;BMP_temperature;BMP_pressure;BME280_temperature;BME280_humidity;BME280_pressure;Samples;Min_cycle;Max_cycle;Signal;HPM_P1;HPM_P2
2023/09/17 00:01:10;;;;;;;;;;;;;;;16.06;45.85;101271.34;5085156;28;20453;-62
2023/09/17 00:03:36;;;;;;;;;;;;;;;16.04;46.06;101270.72;5075034;28;19916;-62
2023/09/17 00:06:01;;;;;;;;;;;;;;;16.06;46.07;101270.50;5057086;28;19913;-62
2023/09/17 00:08:27;;;;;;;;;;;;;;;16.06;45.50;101279.50;5074849;28;19932;-61
2023/09/17 00:10:52;;;;;;;;;;;;;;;16.04;45.67;101278.84;5068845;28;20281;-61
2023/09/17 00:13:18;;;;;;;;;;;;;;;16.00;46.02;101280.31;5075005;28;19917;-61
2023/09/17 00:15:43;;;;;;;;;;;;;;;15.96;45.78;101287.19;5080839;28;20380;-61
2023/09/17 00:18:08;;;;;;;;;;;;;;;15.94;46.05;101283.84;5095348;28;19912;-61
2023/09/17 00:20:34;;;;;;;;;;;;;;;15.91;45.92;101283.44;5095006;28;19922;-62
2023/09/17 00:23:00;;;;;;;;;;;;;;;15.88;46.07;101287.41;5092513;28;20006;-61
2023/09/17 00:25:25;;;;;;;;;;;;;;;15.90;46.15;101298.00;5056766;28;19912;-61
2023/09/17 00:27:51;;;;;;;;;;;;;;;15.90;46.34;101296.16;5083567;28;20012;-61
2023/09/17 00:30:16;;;;;;;;;;;;;;;15.86;45.91;101297.59;5074587;28;19919;-61
2023/09/17 00:32:41;;;;;;;;;;;;;;;15.82;45.96;101297.22;5074421;28;20011;-62
2023/09/17 00:35:07;;;;;;;;;;;;;;;15.83;46.09;101303.44;5056517;28;19952;-61
2023/09/17 00:37:32;;;;;;;;;;;;;;;15.80;45.83;101306.56;5074348;28;19917;-60
2023/09/17 00:39:57;;;;;;;;;;;;;;;15.65;45.76;101298.59;5074437;28;19923;-61
2023/09/17 00:42:23;;;;;;;;;;;;;;;15.58;46.44;101312.16;5074361;28;20381;-62
2023/09/17 00:44:48;;;;;;;;;;;;;;;15.55;46.00;101301.72;5074422;28;20365;-61
2023/09/17 00:47:13;;;;;;;;;;;;;;;15.54;46.09;101305.47;5074504;28;19916;-62
2023/09/17 00:49:39;;;;;;;;;;;;;;;15.53;46.29;101311.09;5074181;28;19954;-61
2023/09/17 00:52:12;;;;;;;;;;;;;;;15.52;46.17;101315.66;5074173;28;19927;-61
2023/09/17 00:54:37;;;;;;;;;;;;;;;15.47;46.22;101319.00;5073807;28;19912;-62
2023/09/17 00:57:03;;;;;;;;;;;;;;;15.47;46.34;101328.97;5087330;28;20479;-61
2023/09/17 00:59:28;;;;;;;;;;;;;;;15.48;46.47;101325.25;5074089;28;19913;-61
2023/09/17 01:01:53;;;;;;;;;;;;;;;15.47;46.40;101328.97;5073754;28;20281;-61
2023/09/17 01:04:19;;;;;;;;;;;;;;;15.44;46.20;101332.09;5073857;28;19912;-62
2023/09/17 01:06:45;;;;;;;;;;;;;;;15.39;46.39;101324.59;5073912;28;19916;-62
2023/09/17 01:09:11;;;;;;;;;;;;;;;15.38;46.46;101325.63;5073558;28;19920;-61
2023/09/17 01:11:36;;;;;;;;;;;;;;;15.41;46.63;101327.91;5055113;28;19917;-62
2023/09/17 01:14:15;;;;;;;;;;;;;;;15.46;47.03;101333.56;5053997;28;20324;-62
2023/09/17 01:16:41;;;;;;;;;;;;;;;15.46;46.92;101325.44;5081481;28;19912;-62
2023/09/17 01:19:09;;;;;;;;;;;;;;;15.45;46.92;101321.09;5093127;28;19912;-62
2023/09/17 01:21:37;;;;;;;;;;;;;;;15.42;47.00;101326.91;5073578;28;19913;-62
2023/09/17 01:24:15;;;;;;;;;;;;;;;15.44;47.00;101329.41;5073444;28;19964;-62
2023/09/17 01:26:44;;;;;;;;;;;;;;;15.44;47.00;101326.69;5074124;28;19944;-62
2023/09/17 01:29:12;;;;;;;;;;;;;;;15.44;47.17;101337.53;5081822;28;20000;-61
2023/09/17 01:31:37;;;;;;;;;;;;;;;15.39;46.87;101340.00;5073449;28;19916;-62
2023/09/17 01:34:03;;;;;;;;;;;;;;;15.36;46.77;101338.53;5073244;28;20226;-62
2023/09/17 01:36:39;;;;;;;;;;;;;;;15.32;46.50;101344.56;5073260;28;19916;-62
2023/09/17 01:39:10;;;;;;;;;;;;;;;15.35;46.98;101342.28;5073621;28;20322;-62
2023/09/17 01:41:36;;;;;;;;;;;;;;;15.36;46.83;101345.81;5073397;28;20285;-62
2023/09/17 01:44:03;;;;;;;;;;;;;;;15.28;46.49;101353.09;5073275;28;19913;-62
2023/09/17 01:46:30;;;;;;;;;;;;;;;15.23;46.28;101352.00;5073512;28;20058;-62
2023/09/17 01:48:55;;;;;;;;;;;;;;;15.19;46.49;101351.59;5073265;28;19917;-62
2023/09/17 01:51:21;;;;;;;;;;;;;;;15.16;46.52;101351.19;5073044;28;19919;-62
2023/09/17 01:53:46;;;;;;;;;;;;;;;15.17;46.50;101360.94;5072448;28;19923;-62
2023/09/17 01:56:12;;;;;;;;;;;;;;;15.15;46.64;101361.13;5073503;28;19930;-62
2023/09/17 01:58:37;;;;;;;;;;;;;;;15.09;46.51;101360.06;5073096;28;19963;-62
2023/09/17 02:01:03;;;;;;;;;;;;;;;15.05;46.37;101360.69;5073150;28;20295;-62
2023/09/17 02:03:28;;;;;;;;;;;;;;;15.05;47.31;101364.22;5072799;28;19912;-62
2023/09/17 02:05:54;;;;;;;;;;;;;;;15.10;47.32;101377.16;5073339;28;20385;-62
2023/09/17 02:08:19;;;;;;;;;;;;;;;15.11;46.98;101368.00;5072960;28;20369;-62
2023/09/17 02:10:45;;;;;;;;;;;;;;;15.14;47.27;101373.03;5061471;28;19912;-62
2023/09/17 02:13:10;;;;;;;;;;;;;;;14.82;47.55;101315.00;5052794;28;19967;-62
2023/09/17 02:15:36;;;;;;;;;;;;;;;15.21;47.43;101376.59;5059664;28;19912;-63
2023/09/17 02:18:03;;;;;;;;;;;;;;;15.21;47.23;101375.72;5072868;28;19940;-62
2023/09/17 02:20:28;;;;;;;;;;;;;;;15.21;47.30;101371.19;5073047;28;19913;-61
2023/09/17 02:22:54;;;;;;;;;;;;;;;15.21;47.46;101370.31;5073051;28;20128;-62
2023/09/17 02:25:19;;;;;;;;;;;;;;;15.23;46.96;101368.25;5072799;28;19919;-62
2023/09/17 02:27:46;;;;;;;;;;;;;;;15.21;46.93;101368.47;5082081;28;19916;-62
2023/09/17 02:30:11;;;;;;;;;;;;;;;15.25;47.46;101368.91;5072818;28;20117;-62
2023/09/17 02:32:39;;;;;;;;;;;;;;;15.25;47.10;101375.16;5073427;28;20015;-61
2023/09/17 02:35:08;;;;;;;;;;;;;;;15.24;47.16;101365.34;5076814;28;19923;-62
2023/09/17 02:37:33;;;;;;;;;;;;;;;15.25;47.27;101375.16;5076536;28;19912;-62
2023/09/17 02:39:59;;;;;;;;;;;;;;;15.20;47.25;101374.91;5076432;28;19912;-62
2023/09/17 02:42:24;;;;;;;;;;;;;;;15.15;47.08;101384.66;5076712;28;20369;-62
2023/09/17 02:44:50;;;;;;;;;;;;;;;15.04;46.90;101384.22;5076412;28;19919;-62
2023/09/17 02:47:15;;;;;;;;;;;;;;;15.03;47.09;101382.53;5076534;28;19916;-62
2023/09/17 02:49:40;;;;;;;;;;;;;;;15.02;46.85;101393.56;5076455;28;20399;-62
2023/09/17 02:52:06;;;;;;;;;;;;;;;14.97;46.96;101390.59;5076181;28;19916;-61
2023/09/17 02:54:32;;;;;;;;;;;;;;;14.90;46.71;101390.59;5076116;28;19944;-62
2023/09/17 02:56:58;;;;;;;;;;;;;;;14.90;47.08;101396.00;5076102;28;19999;-62
2023/09/17 02:59:24;;;;;;;;;;;;;;;14.94;47.25;101396.44;5076006;28;20403;-61
2023/09/17 03:01:49;;;;;;;;;;;;;;;14.98;47.29;101400.41;5070422;28;19917;-61
2023/09/17 03:04:14;;;;;;;;;;;;;;;15.00;47.46;101401.03;5055960;28;19924;-61
2023/09/17 03:06:39;;;;;;;;;;;;;;;14.99;47.41;101400.22;5056020;28;19971;-61
2023/09/17 03:09:10;;;;;;;;;;;;;;;14.97;47.27;101399.56;5038046;28;20058;-62
2023/09/17 03:11:35;;;;;;;;;;;;;;;14.99;47.07;101399.34;5074501;28;19923;-61
2023/09/17 03:14:01;;;;;;;;;;;;;;;14.95;47.03;101408.91;5075805;28;19912;-62
2023/09/17 03:16:30;;;;;;;;;;;;;;;14.94;47.19;101396.44;5088347;28;19920;-61
2023/09/17 03:18:55;;;;;;;;;;;;;;;14.94;47.05;101405.38;5096070;28;19912;-62
2023/09/17 03:21:21;;;;;;;;;;;;;;;14.94;47.41;101402.66;5096202;28;19916;-62
2023/09/17 03:23:46;;;;;;;;;;;;;;;14.91;47.15;101408.47;5096018;28;19912;-62
2023/09/17 03:26:12;;;;;;;;;;;;;;;14.90;47.01;101402.22;5096188;28;20382;-62
2023/09/17 03:28:38;;;;;;;;;;;;;;;14.88;47.07;101411.59;5085546;28;19912;-62
2023/09/17 03:31:03;;;;;;;;;;;;;;;14.81;46.90;101416.94;5075512;28;19912;-62
2023/09/17 03:33:29;;;;;;;;;;;;;;;14.81;47.50;101416.13;5075402;28;20324;-62
2023/09/17 03:35:54;;;;;;;;;;;;;;;14.77;46.91;101417.56;5075419;28;19944;-62
2023/09/17 03:38:20;;;;;;;;;;;;;;;14.76;47.23;101416.69;5075797;28;19912;-61
2023/09/17 03:40:48;;;;;;;;;;;;;;;14.73;47.21;101418.97;5075442;28;20273;-62
2023/09/17 03:43:13;;;;;;;;;;;;;;;14.74;46.94;101421.47;5075317;28;19920;-62
2023/09/17 03:45:38;;;;;;;;;;;;;;;14.72;47.20;101420.84;5074151;28;19916;-62
2023/09/17 03:48:04;;;;;;;;;;;;;;;14.70;47.08;101425.59;5075279;28;19939;-62
2023/09/17 03:50:30;;;;;;;;;;;;;;;14.71;47.45;101430.00;5075037;28;19913;-61
2023/09/17 03:52:57;;;;;;;;;;;;;;;14.69;47.14;101432.03;5074958;28;19921;-62
2023/09/17 03:55:23;;;;;;;;;;;;;;;14.71;47.50;101435.41;5074395;28;19962;-62
2023/09/17 03:57:49;;;;;;;;;;;;;;;14.71;47.31;101428.13;5075110;28;19916;-61
2023/09/17 04:00:15;;;;;;;;;;;;;;;14.75;47.54;101428.56;5075079;28;20304;-61
2023/09/17 04:02:41;;;;;;;;;;;;;;;14.71;47.27;101433.53;5062248;28;20453;-62
2023/09/17 04:05:09;;;;;;;;;;;;;;;14.74;47.49;101426.88;5055120;28;19919;-62
2023/09/17 04:07:37;;;;;;;;;;;;;;;14.74;47.26;101439.56;5055273;28;19916;-62
2023/09/17 04:10:05;;;;;;;;;;;;;;;14.76;48.19;101437.50;5068425;28;19916;-62
2023/09/17 04:12:38;;;;;;;;;;;;;;;14.75;47.51;101441.25;5054905;28;20003;-62
2023/09/17 04:15:08;;;;;;;;;;;;;;;14.48;48.15;101436.41;5055193;28;19917;-62
2023/09/17 04:17:33;;;;;;;;;;;;;;;14.65;48.06;101441.56;5095599;28;20346;-61
2023/09/17 04:19:58;;;;;;;;;;;;;;;14.74;47.72;101447.69;5094833;28;19920;-61
2023/09/17 04:22:23;;;;;;;;;;;;;;;14.73;47.41;101443.28;5094810;28;20356;-61
2023/09/17 04:24:49;;;;;;;;;;;;;;;14.70;47.20;101455.34;5075539;28;20276;-61
2023/09/17 04:27:15;;;;;;;;;;;;;;;14.64;47.01;101456.97;5079539;28;19920;-61
2023/09/17 04:29:40;;;;;;;;;;;;;;;14.61;47.07;101456.53;5060588;28;19917;-61
2023/09/17 04:32:05;;;;;;;;;;;;;;;14.56;47.21;101457.09;5074463;28;19916;-61
2023/09/17 04:34:31;;;;;;;;;;;;;;;14.51;47.30;101467.66;5074276;28;20059;-61
2023/09/17 04:36:58;;;;;;;;;;;;;;;14.44;47.49;101464.88;5074546;28;19919;-61
2023/09/17 04:39:24;;;;;;;;;;;;;;;14.41;47.38;101462.59;5074248;28;20372;-62
2023/09/17 04:41:50;;;;;;;;;;;;;;;14.37;46.97;101463.97;5073969;28;19920;-62
2023/09/17 04:44:15;;;;;;;;;;;;;;;14.36;47.26;101466.88;5074112;28;19916;-61
2023/09/17 04:46:43;;;;;;;;;;;;;;;14.41;47.44;101473.41;5074088;28;19916;-61
2023/09/17 04:49:08;;;;;;;;;;;;;;;14.39;47.60;101472.72;5074029;28;19920;-61
2023/09/17 04:51:34;;;;;;;;;;;;;;;14.39;47.37;101472.72;5074080;28;19916;-62
2023/09/17 04:53:59;;;;;;;;;;;;;;;14.42;47.51;101468.81;5073591;28;19920;-61
2023/09/17 04:56:25;;;;;;;;;;;;;;;14.44;47.76;101477.56;5070292;28;20304;-61
2023/09/17 04:58:50;;;;;;;;;;;;;;;14.46;48.29;101486.31;5094137;28;19912;-62
2023/09/17 05:01:15;;;;;;;;;;;;;;;14.09;47.83;101424.22;5092956;28;19912;-62
2023/09/17 05:03:42;;;;;;;;;;;;;;;14.49;47.88;101491.34;5073642;28;20432;-62
2023/09/17 05:06:07;;;;;;;;;;;;;;;14.50;47.84;101499.25;5073757;28;19962;-62
2023/09/17 05:08:33;;;;;;;;;;;;;;;14.46;47.35;101503.34;5073687;28;20061;-62
2023/09/17 05:10:58;;;;;;;;;;;;;;;14.46;47.56;101505.22;5060674;28;19936;-62
2023/09/17 05:13:23;;;;;;;;;;;;;;;14.44;47.28;101494.59;5053908;28;20285;-62
2023/09/17 05:15:49;;;;;;;;;;;;;;;14.43;47.71;101511.00;5066775;28;19912;-62
2023/09/17 05:18:14;;;;;;;;;;;;;;;14.42;47.33;101517.47;5093776;28;19924;-60
2023/09/17 05:20:43;;;;;;;;;;;;;;;14.40;47.62;101520.34;5078428;28;20007;-62
2023/09/17 05:23:08;;;;;;;;;;;;;;;14.39;47.40;101521.38;5073531;28;19912;-62
2023/09/17 05:25:34;;;;;;;;;;;;;;;14.39;47.21;101523.25;5073571;28;19917;-62
2023/09/17 05:27:59;;;;;;;;;;;;;;;14.44;47.49;101523.50;5082788;28;20006;-62
2023/09/17 05:30:25;;;;;;;;;;;;;;;14.44;47.17;101537.03;5073641;28;19982;-62
2023/09/17 05:32:51;;;;;;;;;;;;;;;14.47;47.55;101539.34;5073233;28;19932;-62
2023/09/17 05:35:16;;;;;;;;;;;;;;;14.51;47.83;101533.34;5073429;28;19916;-62
2023/09/17 05:37:43;;;;;;;;;;;;;;;14.48;47.29;101539.13;5073427;28;19959;-62
2023/09/17 05:40:09;;;;;;;;;;;;;;;14.45;47.34;101542.25;5073430;28;19955;-62
2023/09/17 05:42:34;;;;;;;;;;;;;;;14.42;47.24;101549.91;5073553;28;19917;-62
2023/09/17 05:45:01;;;;;;;;;;;;;;;14.41;47.39;101550.91;5073530;28;19920;-62
2023/09/17 05:47:26;;;;;;;;;;;;;;;14.43;47.42;101554.25;5073451;28;19961;-62
2023/09/17 05:49:55;;;;;;;;;;;;;;;14.48;47.35;101555.34;5073271;28;20403;-62
2023/09/17 05:52:21;;;;;;;;;;;;;;;14.57;47.44;101560.66;5072944;28;20008;-62
2023/09/17 05:54:46;;;;;;;;;;;;;;;14.58;47.46;101567.75;5073798;28;19920;-62
2023/09/17 05:57:11;;;;;;;;;;;;;;;14.60;47.21;101568.38;5093469;28;19912;-62
2023/09/17 05:59:36;;;;;;;;;;;;;;;14.61;47.13;101576.31;5093227;28;19973;-62
2023/09/17 06:02:02;;;;;;;;;;;;;;;14.64;47.27;101572.41;5070780;28;19913;-62
2023/09/17 06:04:27;;;;;;;;;;;;;;;14.66;47.18;101581.97;5053092;28;19932;-62
2023/09/17 06:06:52;;;;;;;;;;;;;;;14.65;47.15;101584.88;5052998;28;19939;-62
2023/09/17 06:09:18;;;;;;;;;;;;;;;14.67;47.18;101585.50;5056515;28;19971;-62
2023/09/17 06:11:43;;;;;;;;;;;;;;;14.68;47.23;101589.91;5076292;28;19916;-62
2023/09/17 06:14:08;;;;;;;;;;;;;;;14.73;47.20;101584.75;5077255;28;19939;-60
2023/09/17 06:16:34;;;;;;;;;;;;;;;14.74;47.05;101589.13;5077067;28;20566;-62
2023/09/17 06:18:59;;;;;;;;;;;;;;;14.77;47.10;101604.13;5077113;28;19920;-62
2023/09/17 06:21:24;;;;;;;;;;;;;;;14.79;47.12;101600.19;5077060;28;19928;-62
2023/09/17 06:23:50;;;;;;;;;;;;;;;14.85;47.11;101602.13;5077310;28;19954;-62
2023/09/17 06:26:15;;;;;;;;;;;;;;;14.86;47.16;101598.41;5076803;28;20292;-61
2023/09/17 06:28:40;;;;;;;;;;;;;;;14.88;47.37;101607.16;5085918;28;19916;-62
2023/09/17 06:31:07;;;;;;;;;;;;;;;14.92;47.23;101604.06;5076731;28;19913;-63
2023/09/17 06:33:33;;;;;;;;;;;;;;;14.93;47.41;101609.25;5076947;28;19956;-62
2023/09/17 06:35:58;;;;;;;;;;;;;;;14.93;47.45;101611.13;5076483;28;20368;-62
2023/09/17 06:38:25;;;;;;;;;;;;;;;14.95;47.07;101614.47;5076916;28;20010;-62
2023/09/17 06:40:50;;;;;;;;;;;;;;;14.96;47.12;101614.28;5076859;28;20456;-62
2023/09/17 06:43:15;;;;;;;;;;;;;;;14.98;47.54;101620.34;5076441;28;19912;-62
2023/09/17 06:45:41;;;;;;;;;;;;;;;15.04;47.58;101618.72;5076369;28;19920;-62
2023/09/17 06:48:06;;;;;;;;;;;;;;;15.09;47.60;101616.28;5076366;28;19966;-62
2023/09/17 06:50:31;;;;;;;;;;;;;;;15.10;47.10;101618.78;5076651;28;19920;-62
2023/09/17 06:52:57;;;;;;;;;;;;;;;15.11;47.61;101630.44;5076341;28;20391;-62
2023/09/17 06:55:22;;;;;;;;;;;;;;;15.15;47.34;101625.47;5081931;28;20327;-62
2023/09/17 06:57:47;;;;;;;;;;;;;;;15.18;47.14;101625.94;5085549;28;20014;-62
2023/09/17 07:00:14;;;;;;;;;;;;;;;15.22;46.95;101629.91;5076227;28;20373;-62
2023/09/17 07:02:39;;;;;;;;;;;;;;;15.27;47.05;101623.94;5063672;28;19939;-62
2023/09/17 07:05:07;;;;;;;;;;;;;;;15.29;46.86;101628.09;5056210;28;20011;-62
2023/09/17 07:07:32;;;;;;;;;;;;;;;15.34;47.46;101626.66;5055771;28;19952;-62
2023/09/17 07:09:58;;;;;;;;;;;;;;;15.39;47.32;101633.16;5060940;28;19913;-62
2023/09/17 07:12:23;;;;;;;;;;;;;;;15.43;47.23;101636.31;5075602;28;19916;-62
2023/09/17 07:14:48;;;;;;;;;;;;;;;15.51;47.33;101643.44;5076033;28;19919;-62
2023/09/17 07:17:14;;;;;;;;;;;;;;;15.60;47.46;101645.81;5094069;28;19944;-63
2023/09/17 07:19:39;;;;;;;;;;;;;;;15.67;47.61;101645.84;5095848;28;19912;-63
2023/09/17 07:22:10;;;;;;;;;;;;;;;15.73;47.07;101649.63;5096040;28;19920;-62
2023/09/17 07:24:36;;;;;;;;;;;;;;;15.75;47.16;101645.75;5096375;28;19931;-62
2023/09/17 07:27:01;;;;;;;;;;;;;;;15.79;46.91;101652.44;5092974;28;19919;-62
2023/09/17 07:29:26;;;;;;;;;;;;;;;15.80;46.84;101647.84;5057952;28;19916;-62
2023/09/17 07:31:52;;;;;;;;;;;;;;;15.84;46.96;101654.53;5075967;28;19921;-63
2023/09/17 07:34:17;;;;;;;;;;;;;;;15.91;47.11;101662.72;5075631;28;19919;-63
2023/09/17 07:36:42;;;;;;;;;;;;;;;15.93;47.10;101660.63;5075596;28;19958;-62
2023/09/17 07:39:09;;;;;;;;;;;;;;;15.97;47.28;101660.06;5075818;28;19919;-62
2023/09/17 07:41:34;;;;;;;;;;;;;;;16.04;46.77;101668.19;5075775;28;19958;-62
2023/09/17 07:44:00;;;;;;;;;;;;;;;16.05;46.93;101670.72;5075282;28;19912;-62
2023/09/17 07:46:25;;;;;;;;;;;;;;;16.11;46.86;101668.25;5075276;28;19912;-63
2023/09/17 07:48:50;;;;;;;;;;;;;;;16.11;46.78;101669.06;5075200;28;19912;-63
2023/09/17 07:51:16;;;;;;;;;;;;;;;16.19;46.60;101668.88;5075412;28;19912;-63
2023/09/17 07:53:41;;;;;;;;;;;;;;;16.25;46.59;101672.66;5066809;28;20019;-62
2023/09/17 07:56:07;;;;;;;;;;;;;;;16.27;46.43;101667.91;5061885;28;19943;-63
2023/09/17 07:58:32;;;;;;;;;;;;;;;16.11;47.52;101671.78;5095435;28;19962;-63
2023/09/17 08:00:57;;;;;;;;;;;;;;;16.13;47.55;101666.16;5095030;28;20319;-63
2023/09/17 08:03:22;;;;;;;;;;;;;;;16.20;47.43;101667.88;5076265;28;19920;-62
2023/09/17 08:05:49;;;;;;;;;;;;;;;16.33;47.78;101675.22;5057341;28;19916;-62
2023/09/17 08:08:14;;;;;;;;;;;;;;;16.54;47.71;101676.97;5074534;28;20008;-62
2023/09/17 08:10:39;;;;;;;;;;;;;;;16.68;47.23;101671.56;5064376;28;19940;-62
2023/09/17 08:13:05;;;;;;;;;;;;;;;16.86;46.82;101680.00;5054658;28;19990;-62
2023/09/17 08:15:30;;;;;;;;;;;;;;;16.96;46.55;101683.16;5062822;28;19947;-62
2023/09/17 08:17:56;;;;;;;;;;;;;;;17.07;46.62;101680.88;5095201;28;20370;-62
2023/09/17 08:20:22;;;;;;;;;;;;;;;17.17;46.28;101686.75;5076883;28;19912;-62
2023/09/17 08:22:51;;;;;;;;;;;;;;;17.27;45.90;101689.03;5095206;28;19912;-63
2023/09/17 08:25:17;;;;;;;;;;;;;;;17.34;45.99;101685.28;5094693;28;19912;-62
2023/09/17 08:27:42;;;;;;;;;;;;;;;17.41;45.90;101688.84;5091716;28;19916;-62
2023/09/17 08:30:11;;;;;;;;;;;;;;;17.48;45.54;101693.44;5074194;28;19916;-62
2023/09/17 08:32:37;;;;;;;;;;;;;;;17.59;45.42;101696.34;5074517;28;19999;-62
2023/09/17 08:35:03;;;;;;;;;;;;;;;17.67;45.12;101697.19;5074358;28;19946;-62
2023/09/17 08:37:29;;;;;;;;;;;;;;;17.75;44.97;101696.97;5074451;28;19919;-62
2023/09/17 08:39:54;;;;;;;;;;;;;;;17.82;44.78;101692.34;5074384;28;19913;-62
2023/09/17 08:42:21;;;;;;;;;;;;;;;17.85;44.95;101691.97;5074201;28;19919;-62
2023/09/17 08:44:48;;;;;;;;;;;;;;;17.93;44.30;101697.16;5074134;28;19913;-62
2023/09/17 08:47:13;;;;;;;;;;;;;;;18.03;44.13;101699.44;5074204;28;19948;-63
2023/09/17 08:49:38;;;;;;;;;;;;;;;18.16;44.06;101704.00;5074280;28;19951;-63
2023/09/17 08:52:06;;;;;;;;;;;;;;;18.17;43.59;101701.09;5073851;28;19916;-63
2023/09/17 08:54:37;;;;;;;;;;;;;;;18.22;43.09;101702.31;5073441;28;19923;-62
2023/09/17 08:57:03;;;;;;;;;;;;;;;18.29;43.11;101703.97;5074353;28;19912;-63
2023/09/17 08:59:30;;;;;;;;;;;;;;;18.36;43.32;101709.38;5073953;28;19920;-63
2023/09/17 09:01:56;;;;;;;;;;;;;;;18.48;43.50;101706.81;5074001;28;19924;-63
2023/09/17 09:04:22;;;;;;;;;;;;;;;18.52;43.55;101703.47;5073657;28;20322;-63
2023/09/17 09:06:48;;;;;;;;;;;;;;;18.64;43.21;101702.78;5055761;28;20031;-63
2023/09/17 09:09:14;;;;;;;;;;;;;;;18.69;42.92;101702.97;5073346;28;19981;-63
2023/09/17 09:11:40;;;;;;;;;;;;;;;18.75;42.91;101702.94;5054827;28;19924;-63
2023/09/17 09:14:06;;;;;;;;;;;;;;;18.83;42.57;101703.75;5053753;28;19917;-63
2023/09/17 09:16:32;;;;;;;;;;;;;;;18.92;42.36;101699.72;5079022;28;19919;-63
2023/09/17 09:18:58;;;;;;;;;;;;;;;19.00;42.26;101710.38;5093870;28;20365;-63
2023/09/17 09:21:24;;;;;;;;;;;;;;;19.07;41.88;101707.59;5093729;28;19919;-63
2023/09/17 09:23:50;;;;;;;;;;;;;;;19.11;41.14;101709.66;5082817;28;19916;-63
2023/09/17 09:26:15;;;;;;;;;;;;;;;19.20;41.32;101710.22;5073395;28;19912;-64
2023/09/17 09:28:40;;;;;;;;;;;;;;;19.28;40.77;101717.31;5082787;28;19999;-63
2023/09/17 09:31:06;;;;;;;;;;;;;;;19.35;40.61;101715.34;5073759;28;19913;-63
2023/09/17 09:33:32;;;;;;;;;;;;;;;19.42;40.83;101704.41;5073415;28;19982;-62
2023/09/17 09:36:00;;;;;;;;;;;;;;;19.49;40.77;101702.47;5073459;28;19920;-62
2023/09/17 09:38:28;;;;;;;;;;;;;;;19.58;41.08;101706.56;5056292;28;19919;-61
2023/09/17 09:40:53;;;;;;;;;;;;;;;19.63;40.59;101700.44;5073440;28;19913;-63
2023/09/17 09:43:31;;;;;;;;;;;;;;;19.71;40.29;101701.00;5072664;28;19912;-62
2023/09/17 09:46:04;;;;;;;;;;;;;;;19.85;40.21;101693.53;5073206;28;19913;-62
2023/09/17 09:48:29;;;;;;;;;;;;;;;19.91;39.55;101700.84;5073307;28;19912;-63
2023/09/17 09:50:55;;;;;;;;;;;;;;;20.02;39.24;101693.81;5073317;28;20279;-63
2023/09/17 09:53:20;;;;;;;;;;;;;;;20.15;39.55;101698.28;5073351;28;20342;-63
2023/09/17 09:55:46;;;;;;;;;;;;;;;20.29;38.41;101701.69;5082140;28;19916;-63
2023/09/17 09:58:13;;;;;;;;;;;;;;;20.40;38.72;101705.53;5067393;28;20235;-63
2023/09/17 10:00:44;;;;;;;;;;;;;;;20.53;38.29;101716.28;5057734;28;20019;-63
2023/09/17 10:03:10;;;;;;;;;;;;;;;20.68;38.72;101711.28;5056347;28;19973;-62
2023/09/17 10:05:37;;;;;;;;;;;;;;;20.86;38.32;101709.59;5053137;28;20007;-62
2023/09/17 10:08:04;;;;;;;;;;;;;;;21.03;38.48;101702.38;5052778;28;20417;-63
2023/09/17 10:10:30;;;;;;;;;;;;;;;21.18;37.57;101710.16;5062091;28;19966;-63
2023/09/17 10:12:55;;;;;;;;;;;;;;;21.35;38.23;101712.19;5072956;28;20046;-63
2023/09/17 10:15:20;;;;;;;;;;;;;;;21.47;35.92;101713.09;5075583;28;19919;-63
2023/09/17 10:17:47;;;;;;;;;;;;;;;21.63;36.02;101712.38;5093486;28;19938;-63
2023/09/17 10:20:14;;;;;;;;;;;;;;;21.79;35.22;101715.47;5081292;28;19970;-63
2023/09/17 10:22:40;;;;;;;;;;;;;;;21.93;35.99;101714.16;5073332;28;19995;-63
2023/09/17 10:25:08;;;;;;;;;;;;;;;22.14;35.57;101720.06;5072848;28;20484;-63
2023/09/17 10:27:35;;;;;;;;;;;;;;;22.35;35.42;101724.13;5075286;28;19991;-63
2023/09/17 10:30:03;;;;;;;;;;;;;;;22.54;35.39;101711.09;5071004;28;20312;-63
2023/09/17 10:32:30;;;;;;;;;;;;;;;22.66;35.13;101711.91;5053141;28;19939;-63
2023/09/17 10:34:57;;;;;;;;;;;;;;;22.82;35.07;101723.97;5052901;28;19919;-63
2023/09/17 10:37:23;;;;;;;;;;;;;;;22.94;35.07;101716.53;5052745;28;19912;-63
2023/09/17 10:39:48;;;;;;;;;;;;;;;23.05;33.89;101714.00;5052929;28;19919;-63
2023/09/17 10:42:15;;;;;;;;;;;;;;;23.20;33.99;101717.03;5058641;28;20011;-63
2023/09/17 10:44:40;;;;;;;;;;;;;;;23.32;33.35;101706.78;5072749;28;19912;-63
2023/09/17 10:47:11;;;;;;;;;;;;;;;23.46;34.02;101711.94;5072643;28;19912;-63
2023/09/17 10:49:37;;;;;;;;;;;;;;;23.51;31.63;101707.41;5072853;28;19964;-63
2023/09/17 10:52:04;;;;;;;;;;;;;;;23.57;30.43;101713.78;5072556;28;20430;-63
2023/09/17 10:54:30;;;;;;;;;;;;;;;23.60;31.67;101716.00;5074540;28;19919;-63
2023/09/17 10:56:56;;;;;;;;;;;;;;;23.68;30.36;101720.25;5072075;28;19913;-64
2023/09/17 10:59:22;;;;;;;;;;;;;;;23.83;30.67;101722.41;5076119;28;19913;-64
2023/09/17 11:01:49;;;;;;;;;;;;;;;23.98;30.51;101719.06;5070913;28;20285;-63
2023/09/17 11:04:16;;;;;;;;;;;;;;;24.08;29.44;101705.50;5056339;28;20388;-63
2023/09/17 11:06:43;;;;;;;;;;;;;;;24.22;31.53;101709.53;5056192;28;20273;-64
2023/09/17 11:09:08;;;;;;;;;;;;;;;24.23;27.66;101700.19;5055769;28;20364;-64
2023/09/17 11:11:37;;;;;;;;;;;;;;;24.30;29.96;101694.53;5073749;28;19916;-63
2023/09/17 11:14:05;;;;;;;;;;;;;;;24.42;29.25;101697.94;5075645;28;19912;-64
2023/09/17 11:16:32;;;;;;;;;;;;;;;24.54;28.33;101692.38;5076020;28;19938;-64
2023/09/17 11:19:14;;;;;;;;;;;;;;;24.62;27.08;101699.31;5075663;28;19962;-63
2023/09/17 11:21:43;;;;;;;;;;;;;;;24.71;28.37;101695.03;5075627;28;19913;-64
2023/09/17 11:24:12;;;;;;;;;;;;;;;24.77;28.10;101695.91;5075738;28;19916;-64
2023/09/17 11:26:41;;;;;;;;;;;;;;;24.85;26.63;101703.66;5075513;28;19912;-64
2023/09/17 11:29:08;;;;;;;;;;;;;;;24.88;26.74;101681.16;5067188;28;19957;-63
2023/09/17 11:31:57;;;;;;;;;;;;;;;24.96;27.63;101690.84;5075510;28;20415;-63
2023/09/17 11:34:22;;;;;;;;;;;;;;;24.84;28.76;101636.06;5075254;28;20021;-63
2023/09/17 11:36:48;;;;;;;;;;;;;;;25.25;27.07;101684.00;5075773;28;19924;-63
2023/09/17 11:39:20;;;;;;;;;;;;;;;25.42;28.24;101688.53;5075419;28;19912;-63
2023/09/17 11:41:50;;;;;;;;;;;;;;;25.58;27.30;101681.22;5075278;28;19923;-64
2023/09/17 11:44:17;;;;;;;;;;;;;;;25.72;27.39;101676.06;5075195;28;19913;-64
2023/09/17 11:46:42;;;;;;;;;;;;;;;25.83;26.54;101667.59;5075194;28;19919;-64
2023/09/17 11:49:10;;;;;;;;;;;;;;;26.01;26.21;101665.53;5075374;28;20272;-64
2023/09/17 11:51:41;;;;;;;;;;;;;;;26.17;26.64;101660.91;5075075;28;19916;-65
2023/09/17 11:54:07;;;;;;;;;;;;;;;26.34;27.45;101658.78;5074475;28;19913;-64
2023/09/17 11:56:33;;;;;;;;;;;;;;;26.45;25.89;101648.63;5091210;28;20339;-64
2023/09/17 11:59:05;;;;;;;;;;;;;;;26.59;27.05;101646.16;5095269;28;20373;-64
2023/09/17 12:01:52;;;;;;;;;;;;;;;26.78;28.79;101643.75;5092139;28;19912;-64
2023/09/17 12:04:18;;;;;;;;;;;;;;;26.93;25.28;101649.28;5074905;28;19913;-64
2023/09/17 12:06:45;;;;;;;;;;;;;;;27.06;26.45;101647.91;5074027;28;19985;-64
2023/09/17 12:09:21;;;;;;;;;;;;;;;27.21;25.02;101649.84;5074658;28;19966;-64
2023/09/17 12:11:47;;;;;;;;;;;;;;;27.35;25.28;101652.88;5058947;28;19959;-64
2023/09/17 12:14:12;;;;;;;;;;;;;;;27.53;29.36;101655.06;5074925;28;19956;-65
2023/09/17 12:16:38;;;;;;;;;;;;;;;27.70;24.70;101657.50;5075073;28;20434;-65
2023/09/17 12:19:03;;;;;;;;;;;;;;;27.85;23.94;101658.56;5074969;28;20448;-65
2023/09/17 12:21:31;;;;;;;;;;;;;;;28.05;28.04;101646.66;5074720;28;20312;-65
2023/09/17 12:23:57;;;;;;;;;;;;;;;28.30;29.03;101651.22;5074735;28;19912;-65
2023/09/17 12:27:08;;;;;;;;;;;;;;;28.53;24.78;101649.75;5074498;28;19919;-65
2023/09/17 12:29:34;;;;;;;;;;;;;;;28.76;24.01;101649.00;5028384;28;19950;-65
2023/09/17 12:32:00;;;;;;;;;;;;;;;29.00;24.41;101656.56;5054484;28;19917;-65